Etusivu
METAR-TAF:

METAR-TAF

Lentoasemat :

Orange, Ranska

Leveyspiiri: 44-08N, Pituuspiiri: 004-50E, korkeus merenpinnasta: 60 m

Tämänhetkinen sää

Tämä raportti tehtiin 22 minuuttia sitten, kello 03.30 UTC
Tuuli 19 kn pohjoisesta
Lämpötila 7°C
Kosteus 66%
Ilmanpaine 1020 hPa
Näkyvyys 10 km tai enemmän
ei pilviä alle 1500 m:ssä eikä cumulonimbus-pilviä

METAR: LFMO 190330Z AUTO 35019KT CAVOK 07/01 Q1020 BECMG 35015G25KT

Aika: 04:52 (03:52 UTC)

Sääennuste

Tämä raportti tehtiin 1 tunti ja 52 minuuttia sitten, kello 02.00 UTC
Ennuste voimassa 19. päivästä klo 03 UTC - 20. päivään klo 03 UTC
Tuuli 15 kn pohjoisesta puuskistuen 25 kn:hen
Näkyvyys 10 km tai enemmän
ei pilviä alle 1500 m:ssä eikä cumulonimbus-pilviä
Todennäköisyys 40% :
Ajoittain
19. päivästä klo 12 UTC - 19. päivään klo 18 UTC
Tuuli 20 kn pohjoisesta puuskistuen 35 kn:hen

TAF: LFMO 190200Z 1903/2003 35015G25KT CAVOK PROB40 TEMPO 1912/1918 35020G35KT

Säähavainnot ja -ennusteet yli 4000 lentoasemalta (METAR- ja TAF-raportit).

Käytössä olevat sääasemat on merkitty karttaan keltaisilla ja punaisilla pisteillä.

Aseta hiiri pisteen päälle nähdäksesi sääaseman nimen.

Klikkaa sitten nähdäksesi säähavainnot ja -ennusteet.

Kartan vaihtaminen: klikkaa mustalla rastilla varustettuja vihreitä pisteitä, niin voit zoomata sisään; viivalla varustettua vihreää pistettä, niin voit zoomata ulos tai vihreitä nuolia, niin pääset viereisille kartoille.


METAR-TAF: